createdAt,value
2022-11-19T00:02:18.450Z,79.78
2022-11-19T00:06:18.808Z,80.22
2022-11-19T00:10:17.547Z,80.25
2022-11-19T00:14:16.427Z,79.78
2022-11-19T00:18:15.270Z,79.52
2022-11-19T00:22:13.854Z,79.35
2022-11-19T00:26:14.113Z,78.47
2022-11-19T00:30:40.311Z,78.47
2022-11-19T00:34:32.287Z,78.27
2022-11-19T00:38:31.850Z,78.34
2022-11-19T00:42:30.627Z,78.90
2022-11-19T00:46:30.766Z,79.08
2022-11-19T00:50:29.747Z,78.35
2022-11-19T00:54:28.429Z,79.01
2022-11-19T00:58:27.448Z,78.95
2022-11-19T01:02:26.232Z,78.83
2022-11-19T01:06:26.184Z,78.34
2022-11-19T01:10:25.188Z,78.54
2022-11-19T01:14:23.924Z,78.88
2022-11-19T01:18:23.373Z,78.81
2022-11-19T01:22:22.605Z,78.71
2022-11-19T01:26:21.968Z,78.35
2022-11-19T01:30:20.532Z,78.44
2022-11-19T01:34:19.451Z,77.90
2022-11-19T01:38:18.303Z,77.88
2022-11-19T01:42:44.015Z,78.27
2022-11-19T01:46:42.850Z,78.47
2022-11-19T01:51:01.655Z,78.18
2022-11-19T01:55:02.258Z,78.21
2022-11-19T01:59:07.935Z,78.44
2022-11-19T02:03:06.830Z,78.19
2022-11-19T02:07:07.131Z,78.51
2022-11-19T02:11:24.952Z,78.62
2022-11-19T02:15:30.493Z,78.67
2022-11-19T02:20:01.639Z,78.75
2022-11-19T02:24:10.873Z,78.79
2022-11-19T02:28:28.881Z,78.77
2022-11-19T02:32:31.389Z,80.65
2022-11-19T02:36:48.815Z,81.36
2022-11-19T02:40:52.710Z,81.30
2022-11-19T02:45:07.460Z,81.78
2022-11-19T02:49:07.329Z,82.01
2022-11-19T02:53:05.849Z,81.49
2022-11-19T02:57:05.036Z,81.78
2022-11-19T03:01:26.113Z,82.37
2022-11-19T03:05:28.563Z,82.18
2022-11-19T03:09:28.918Z,82.91
2022-11-19T03:13:52.522Z,82.49
2022-11-19T03:17:51.358Z,82.35
2022-11-19T03:21:56.609Z,82.55
2022-11-19T03:26:04.823Z,82.52
2022-11-19T03:30:04.428Z,82.60
2022-11-19T03:34:04.308Z,82.52
2022-11-19T03:38:05.381Z,81.83
2022-11-19T03:42:07.217Z,81.70
2022-11-19T03:46:09.296Z,81.88
2022-11-19T03:50:17.432Z,82.04
2022-11-19T03:54:16.669Z,82.17
2022-11-19T03:58:15.749Z,82.35
2022-11-19T04:02:15.229Z,82.43
2022-11-19T04:06:13.838Z,82.51
2022-11-19T04:10:12.729Z,82.85
2022-11-19T04:14:12.851Z,83.02
2022-11-19T04:18:12.009Z,83.34
2022-11-19T04:22:11.292Z,83.37
2022-11-19T04:26:10.821Z,83.43
2022-11-19T04:30:09.967Z,83.20
2022-11-19T04:34:08.889Z,83.12
2022-11-19T04:38:07.345Z,83.21
2022-11-19T04:42:06.490Z,83.14
2022-11-19T04:46:05.626Z,82.84
2022-11-19T04:50:04.989Z,82.70
2022-11-19T04:54:04.017Z,82.64
2022-11-19T04:58:03.262Z,82.60
2022-11-19T05:02:01.884Z,82.61
2022-11-19T05:06:01.071Z,82.73
2022-11-19T05:09:59.656Z,83.04
2022-11-19T05:13:58.933Z,83.29
2022-11-19T05:17:57.898Z,83.84
2022-11-19T05:21:56.672Z,84.66
2022-11-19T05:25:55.317Z,84.88
2022-11-19T05:29:54.088Z,85.25
2022-11-19T05:33:52.710Z,85.32
2022-11-19T05:37:52.067Z,85.27
2022-11-19T05:41:51.174Z,85.26
2022-11-19T05:45:50.372Z,85.13
2022-11-19T05:49:49.172Z,85.02
2022-11-19T05:53:48.309Z,84.98
2022-11-19T05:57:47.371Z,84.99
2022-11-19T06:01:48.577Z,84.94
2022-11-19T06:05:24.234Z,84.93
2022-11-19T06:09:23.295Z,85.17
2022-11-19T06:13:22.097Z,85.40
2022-11-19T06:17:20.988Z,85.32
2022-11-19T06:21:20.267Z,85.34
2022-11-19T06:25:19.091Z,85.53
2022-11-19T06:29:19.246Z,85.62
2022-11-19T06:33:18.590Z,85.67
2022-11-19T06:37:17.871Z,85.66
2022-11-19T06:41:17.133Z,85.68
2022-11-19T06:45:15.392Z,85.66
2022-11-19T06:49:19.974Z,85.63
2022-11-19T06:53:19.548Z,85.61
2022-11-19T06:57:18.208Z,85.62
2022-11-19T07:01:17.143Z,85.54
2022-11-19T07:05:16.014Z,85.59
2022-11-19T07:09:15.579Z,85.56
2022-11-19T07:13:14.170Z,85.46
2022-11-19T07:17:12.915Z,85.50
2022-11-19T07:21:11.628Z,85.45
2022-11-19T07:25:14.189Z,85.32
2022-11-19T07:29:14.086Z,85.23
2022-11-19T07:33:13.104Z,85.32
2022-11-19T07:37:12.648Z,85.36
2022-11-19T07:41:44.666Z,85.36
2022-11-19T07:45:43.931Z,85.28
2022-11-19T07:49:42.525Z,85.14
2022-11-19T07:53:43.037Z,85.34
2022-11-19T07:57:42.035Z,85.20
2022-11-19T08:01:41.216Z,85.06
2022-11-19T08:05:40.960Z,84.81
2022-11-19T08:09:40.262Z,83.92
2022-11-19T08:13:40.259Z,83.70
2022-11-19T08:17:58.335Z,83.97
2022-11-19T08:21:57.184Z,80.79
2022-11-19T08:25:55.522Z,80.10
2022-11-19T08:29:54.281Z,79.58
2022-11-19T08:33:53.118Z,78.80
2022-11-19T08:42:24.054Z,75.40
2022-11-19T08:46:22.997Z,75.91
2022-11-19T08:50:22.359Z,74.96
2022-11-19T08:54:21.711Z,74.91
2022-11-19T08:58:21.353Z,72.12
2022-11-19T09:02:20.817Z,72.43
2022-11-19T09:06:19.638Z,73.39
2022-11-19T09:10:32.681Z,73.03
2022-11-19T09:14:31.377Z,73.15
2022-11-19T09:18:31.561Z,71.63
2022-11-19T09:22:31.644Z,71.55
2022-11-19T09:26:30.558Z,72.24
2022-11-19T09:30:29.721Z,71.42
2022-11-19T09:34:29.091Z,72.32
2022-11-19T09:38:35.274Z,69.88
2022-11-19T09:42:15.348Z,71.40
2022-11-19T09:46:33.303Z,70.93
2022-11-19T09:50:35.468Z,71.30
2022-11-19T09:54:35.189Z,73.74
2022-11-19T09:58:39.736Z,71.98
2022-11-19T10:02:39.045Z,71.01
2022-11-19T10:06:53.811Z,70.52
2022-11-19T10:11:05.024Z,71.94
2022-11-19T10:15:24.237Z,73.25
2022-11-19T10:19:51.832Z,72.80
2022-11-19T10:24:11.010Z,72.98
2022-11-19T10:28:16.049Z,73.38
2022-11-19T10:32:18.609Z,72.83
2022-11-19T10:36:22.866Z,72.22
2022-11-19T10:40:23.287Z,71.05
2022-11-19T10:44:40.801Z,71.38
2022-11-19T10:48:43.702Z,69.96
2022-11-19T10:52:44.117Z,69.43
2022-11-19T10:56:43.473Z,69.24
2022-11-19T11:00:44.087Z,69.41
2022-11-19T11:05:01.715Z,69.31
2022-11-19T11:09:01.208Z,68.70
2022-11-19T11:13:38.932Z,68.74
2022-11-19T11:17:39.093Z,69.17
2022-11-19T11:21:39.848Z,72.43
2022-11-19T11:25:39.909Z,72.08
2022-11-19T11:29:39.468Z,72.51
2022-11-19T11:33:58.048Z,72.63
2022-11-19T11:37:57.205Z,73.35
2022-11-19T11:42:06.669Z,73.35
2022-11-19T11:46:08.544Z,73.55
2022-11-19T11:50:09.116Z,73.19
2022-11-19T11:54:22.239Z,73.22
2022-11-19T11:58:23.978Z,73.29
2022-11-19T12:02:28.028Z,73.31
2022-11-19T12:06:49.279Z,73.22
2022-11-19T12:11:00.875Z,73.13
2022-11-19T12:15:00.091Z,74.27
2022-11-19T12:18:58.841Z,73.14
2022-11-19T12:22:57.984Z,72.90
2022-11-19T12:27:14.229Z,73.89
2022-11-19T12:31:19.976Z,74.80
2022-11-19T12:35:42.210Z,72.92
2022-11-19T12:39:47.355Z,72.69
2022-11-19T12:44:01.408Z,72.62
2022-11-19T12:48:19.582Z,73.31
2022-11-19T12:52:45.137Z,72.79
2022-11-19T12:56:49.819Z,74.39
2022-11-19T13:00:55.882Z,73.43
2022-11-19T13:05:19.220Z,73.95
2022-11-19T13:08:37.003Z,73.37
2022-11-19T13:12:30.828Z,73.46
2022-11-19T13:16:44.900Z,73.46
2022-11-19T13:20:47.084Z,73.48
2022-11-19T13:24:49.041Z,73.17
2022-11-19T13:28:54.946Z,73.37
2022-11-19T13:33:12.910Z,73.28
2022-11-19T13:37:34.006Z,73.44
2022-11-19T13:40:52.677Z,73.56
2022-11-19T13:44:52.292Z,73.89
2022-11-19T13:48:58.537Z,74.05
2022-11-19T13:53:18.256Z,74.23
2022-11-19T13:57:45.412Z,74.27
2022-11-19T14:01:15.049Z,74.41
2022-11-19T14:05:16.864Z,74.75
2022-11-19T14:09:39.104Z,73.26
2022-11-19T14:14:30.694Z,73.24
2022-11-19T14:18:58.435Z,74.15
2022-11-19T14:23:16.416Z,73.48
2022-11-19T14:27:15.954Z,74.12
2022-11-19T14:31:16.276Z,74.60
2022-11-19T14:35:18.077Z,74.75
2022-11-19T14:39:31.658Z,74.69
2022-11-19T14:43:49.394Z,74.00
2022-11-19T14:48:03.978Z,74.54
2022-11-19T14:52:03.432Z,76.20
2022-11-19T14:56:11.610Z,76.30
2022-11-19T14:59:45.221Z,76.53
2022-11-19T15:03:48.560Z,77.62
2022-11-19T15:08:20.618Z,77.96
2022-11-19T15:12:21.088Z,77.13
2022-11-19T15:16:25.734Z,75.84
2022-11-19T15:20:44.535Z,75.99
2022-11-19T15:24:57.244Z,76.05
2022-11-19T15:29:08.940Z,75.97
2022-11-19T15:33:07.828Z,76.19
2022-11-19T15:37:13.033Z,76.34
2022-11-19T15:41:18.201Z,76.57
2022-11-19T15:45:20.555Z,77.02
2022-11-19T15:49:23.307Z,77.91
2022-11-19T15:53:24.088Z,78.22
2022-11-19T15:57:26.270Z,78.26
2022-11-19T16:01:26.933Z,78.35
2022-11-19T16:05:28.848Z,78.40
2022-11-19T16:09:28.723Z,78.14
2022-11-19T16:13:46.235Z,78.40
2022-11-19T16:17:48.089Z,78.55
2022-11-19T16:21:23.088Z,78.83
2022-11-19T16:25:22.457Z,78.58
2022-11-19T16:29:23.609Z,78.58
2022-11-19T16:33:24.478Z,78.28
2022-11-19T16:37:23.379Z,78.28
2022-11-19T16:41:42.151Z,78.21
2022-11-19T16:45:44.636Z,78.40
2022-11-19T16:49:49.861Z,78.20
2022-11-19T16:53:48.875Z,76.69
2022-11-19T16:57:49.881Z,76.95
2022-11-19T17:01:51.146Z,77.50
2022-11-19T17:06:05.268Z,78.43
2022-11-19T17:10:07.533Z,78.47
2022-11-19T17:14:07.076Z,78.57
2022-11-19T17:18:10.085Z,77.93
2022-11-19T17:22:23.711Z,78.33
2022-11-19T17:26:23.963Z,77.09
2022-11-19T17:30:25.339Z,77.26
2022-11-19T17:34:24.188Z,77.78
2022-11-19T17:38:31.702Z,78.21
2022-11-19T17:42:49.634Z,78.02
2022-11-19T17:46:48.653Z,76.61
2022-11-19T17:50:48.132Z,75.94
2022-11-19T17:54:47.814Z,75.76
2022-11-19T17:58:47.169Z,77.12
2022-11-19T18:02:52.051Z,76.97
2022-11-19T18:07:13.855Z,77.79
2022-11-19T18:10:45.679Z,79.21
2022-11-19T18:15:01.907Z,80.17
2022-11-19T18:19:02.909Z,79.44
2022-11-19T18:23:02.726Z,78.99
2022-11-19T18:27:02.184Z,79.90
2022-11-19T18:31:16.452Z,79.81
2022-11-19T18:35:16.837Z,80.07
2022-11-19T18:39:16.147Z,80.04
2022-11-19T18:43:39.719Z,79.06
2022-11-19T18:47:38.977Z,80.04
2022-11-19T18:51:38.368Z,80.56
2022-11-19T18:55:37.645Z,80.74
2022-11-19T18:59:37.399Z,79.44
2022-11-19T19:03:36.776Z,79.15
2022-11-19T19:07:36.476Z,78.85
2022-11-19T19:11:58.423Z,79.40
2022-11-19T19:16:00.528Z,78.85
2022-11-19T19:19:59.888Z,78.65
2022-11-19T19:23:59.297Z,79.94
2022-11-19T19:27:58.889Z,76.64
2022-11-19T19:31:58.788Z,77.76
2022-11-19T19:35:58.549Z,77.51
2022-11-19T19:39:57.599Z,77.94
2022-11-19T19:44:15.162Z,77.63
2022-11-19T19:48:14.015Z,76.48
2022-11-19T19:52:12.868Z,76.16
2022-11-19T19:56:14.074Z,75.23
2022-11-19T20:00:13.699Z,75.09
2022-11-19T20:04:12.455Z,73.66
2022-11-19T20:08:11.773Z,73.69
2022-11-19T20:12:11.978Z,74.03
2022-11-19T20:16:17.593Z,71.98
2022-11-19T20:20:17.094Z,69.56
2022-11-19T20:24:17.555Z,68.12
2022-11-19T20:28:16.312Z,65.44
2022-11-19T20:32:15.141Z,64.09
2022-11-19T20:36:15.856Z,63.93
2022-11-19T20:40:15.793Z,64.23
2022-11-19T20:44:21.623Z,65.81
2022-11-19T20:48:21.086Z,64.25
2022-11-19T20:52:21.949Z,65.24
2022-11-19T20:56:21.472Z,67.93
2022-11-19T21:00:39.228Z,67.66
2022-11-19T21:03:58.796Z,69.24
2022-11-19T21:07:58.487Z,70.21
2022-11-19T21:11:57.420Z,69.46
2022-11-19T21:15:57.049Z,70.45
2022-11-19T21:19:56.386Z,70.43
2022-11-19T21:23:55.809Z,66.83
2022-11-19T21:27:54.751Z,65.14
2022-11-19T21:31:55.870Z,63.46
2022-11-19T21:35:58.493Z,62.58
2022-11-19T21:39:57.371Z,61.68
2022-11-19T21:43:56.528Z,65.77
2022-11-19T21:47:55.153Z,66.22
2022-11-19T21:51:55.416Z,67.80
2022-11-19T21:55:57.330Z,67.67
2022-11-19T21:59:56.468Z,68.49
2022-11-19T22:03:55.452Z,68.56
2022-11-19T22:07:55.042Z,68.69
2022-11-19T22:11:54.094Z,68.94
2022-11-19T22:15:59.593Z,67.04
2022-11-19T22:19:59.617Z,67.00
2022-11-19T22:23:58.732Z,67.85
2022-11-19T22:28:00.376Z,67.27
2022-11-19T22:31:59.432Z,67.08
2022-11-19T22:36:00.383Z,66.64
2022-11-19T22:40:02.115Z,66.12
2022-11-19T22:44:01.223Z,64.55
2022-11-19T22:48:00.268Z,63.71
2022-11-19T22:51:59.356Z,64.77
2022-11-19T22:56:01.664Z,64.83
2022-11-19T23:00:00.807Z,65.91
2022-11-19T23:04:02.341Z,65.82
2022-11-19T23:08:04.084Z,67.16
2022-11-19T23:12:22.277Z,68.93
2022-11-19T23:16:21.459Z,70.44
2022-11-19T23:20:20.159Z,71.22
2022-11-19T23:24:18.867Z,71.70
2022-11-19T23:28:18.033Z,71.95
2022-11-19T23:32:16.630Z,72.31
2022-11-19T23:36:20.376Z,72.73
2022-11-19T23:40:19.592Z,73.05
2022-11-19T23:44:18.629Z,71.51
2022-11-19T23:48:17.894Z,69.32
2022-11-19T23:52:17.251Z,70.34
2022-11-19T23:56:31.667Z,70.73
